sensor_id;sensor_type;location;lat;lon;timestamp;P1;durP1;ratioP1;P2;durP2;ratioP2
8466;SDS011;4270;48.148;11.648;2023-09-12T00:00:39;18.03;;;16.27;;
8466;SDS011;4270;48.148;11.648;2023-09-12T00:03:04;16.50;;;14.80;;
8466;SDS011;4270;48.148;11.648;2023-09-12T00:05:29;17.77;;;15.87;;
8466;SDS011;4270;48.148;11.648;2023-09-12T00:07:54;17.63;;;15.83;;
8466;SDS011;4270;48.148;11.648;2023-09-12T00:10:20;16.17;;;14.47;;
8466;SDS011;4270;48.148;11.648;2023-09-12T00:12:45;18.20;;;15.63;;
8466;SDS011;4270;48.148;11.648;2023-09-12T00:15:10;16.43;;;14.73;;
8466;SDS011;4270;48.148;11.648;2023-09-12T00:17:36;17.07;;;15.27;;
8466;SDS011;4270;48.148;11.648;2023-09-12T00:20:01;18.40;;;16.17;;
8466;SDS011;4270;48.148;11.648;2023-09-12T00:22:26;18.83;;;16.07;;
8466;SDS011;4270;48.148;11.648;2023-09-12T00:24:51;17.20;;;15.50;;
8466;SDS011;4270;48.148;11.648;2023-09-12T00:27:17;17.63;;;15.13;;
8466;SDS011;4270;48.148;11.648;2023-09-12T00:29:42;17.63;;;14.30;;
8466;SDS011;4270;48.148;11.648;2023-09-12T00:32:07;16.63;;;14.90;;
8466;SDS011;4270;48.148;11.648;2023-09-12T00:34:35;16.27;;;14.63;;
8466;SDS011;4270;48.148;11.648;2023-09-12T00:37:01;17.60;;;15.77;;
8466;SDS011;4270;48.148;11.648;2023-09-12T00:39:26;17.30;;;15.50;;
8466;SDS011;4270;48.148;11.648;2023-09-12T00:41:51;15.57;;;14.07;;
8466;SDS011;4270;48.148;11.648;2023-09-12T00:44:16;20.30;;;15.83;;
8466;SDS011;4270;48.148;11.648;2023-09-12T00:46:42;18.67;;;15.17;;
8466;SDS011;4270;48.148;11.648;2023-09-12T00:49:08;18.87;;;16.27;;
8466;SDS011;4270;48.148;11.648;2023-09-12T00:51:34;16.60;;;13.70;;
8466;SDS011;4270;48.148;11.648;2023-09-12T00:54:00;15.73;;;14.13;;
8466;SDS011;4270;48.148;11.648;2023-09-12T00:56:25;16.57;;;14.50;;
8466;SDS011;4270;48.148;11.648;2023-09-12T00:58:51;18.47;;;15.53;;
8466;SDS011;4270;48.148;11.648;2023-09-12T01:01:17;16.70;;;14.07;;
8466;SDS011;4270;48.148;11.648;2023-09-12T01:03:42;19.87;;;15.63;;
8466;SDS011;4270;48.148;11.648;2023-09-12T01:06:08;17.13;;;15.30;;
8466;SDS011;4270;48.148;11.648;2023-09-12T01:08:34;16.53;;;14.83;;
8466;SDS011;4270;48.148;11.648;2023-09-12T01:10:59;16.37;;;14.37;;
8466;SDS011;4270;48.148;11.648;2023-09-12T01:13:25;17.10;;;15.30;;
8466;SDS011;4270;48.148;11.648;2023-09-12T01:15:50;19.60;;;16.00;;
8466;SDS011;4270;48.148;11.648;2023-09-12T01:18:15;15.73;;;13.60;;
8466;SDS011;4270;48.148;11.648;2023-09-12T01:20:42;16.83;;;15.03;;
8466;SDS011;4270;48.148;11.648;2023-09-12T01:28:24;15.70;;;14.10;;
8466;SDS011;4270;48.148;11.648;2023-09-12T01:30:53;15.73;;;14.13;;
8466;SDS011;4270;48.148;11.648;2023-09-12T01:33:19;16.10;;;14.40;;
8466;SDS011;4270;48.148;11.648;2023-09-12T01:35:44;18.77;;;14.87;;
8466;SDS011;4270;48.148;11.648;2023-09-12T01:38:11;16.57;;;14.00;;
8466;SDS011;4270;48.148;11.648;2023-09-12T01:40:39;15.33;;;13.73;;
8466;SDS011;4270;48.148;11.648;2023-09-12T01:43:07;15.50;;;13.90;;
8466;SDS011;4270;48.148;11.648;2023-09-12T01:45:33;16.17;;;14.50;;
8466;SDS011;4270;48.148;11.648;2023-09-12T01:47:59;17.03;;;15.10;;
8466;SDS011;4270;48.148;11.648;2023-09-12T01:50:25;15.63;;;13.97;;
8466;SDS011;4270;48.148;11.648;2023-09-12T01:52:52;14.63;;;13.13;;
8466;SDS011;4270;48.148;11.648;2023-09-12T01:55:18;16.30;;;14.20;;
8466;SDS011;4270;48.148;11.648;2023-09-12T01:57:43;18.40;;;13.47;;
8466;SDS011;4270;48.148;11.648;2023-09-12T02:00:08;15.93;;;14.10;;
8466;SDS011;4270;48.148;11.648;2023-09-12T02:02:34;16.47;;;14.77;;
8466;SDS011;4270;48.148;11.648;2023-09-12T02:05:18;16.67;;;14.90;;
8466;SDS011;4270;48.148;11.648;2023-09-12T02:07:45;17.10;;;14.83;;
8466;SDS011;4270;48.148;11.648;2023-09-12T02:10:10;15.03;;;13.43;;
8466;SDS011;4270;48.148;11.648;2023-09-12T02:12:35;17.10;;;14.20;;
8466;SDS011;4270;48.148;11.648;2023-09-12T02:15:01;16.17;;;13.33;;
8466;SDS011;4270;48.148;11.648;2023-09-12T02:17:26;16.13;;;14.33;;
8466;SDS011;4270;48.148;11.648;2023-09-12T02:19:51;14.30;;;12.90;;
8466;SDS011;4270;48.148;11.648;2023-09-12T02:22:16;15.40;;;13.90;;
8466;SDS011;4270;48.148;11.648;2023-09-12T02:24:41;15.47;;;13.87;;
8466;SDS011;4270;48.148;11.648;2023-09-12T02:27:07;14.20;;;12.70;;
8466;SDS011;4270;48.148;11.648;2023-09-12T02:29:32;16.03;;;13.50;;
8466;SDS011;4270;48.148;11.648;2023-09-12T02:31:57;14.40;;;12.87;;
8466;SDS011;4270;48.148;11.648;2023-09-12T02:34:23;15.70;;;14.03;;
8466;SDS011;4270;48.148;11.648;2023-09-12T02:36:48;17.03;;;14.40;;
8466;SDS011;4270;48.148;11.648;2023-09-12T02:39:13;15.03;;;13.43;;
8466;SDS011;4270;48.148;11.648;2023-09-12T02:41:39;16.93;;;14.27;;
8466;SDS011;4270;48.148;11.648;2023-09-12T02:44:04;16.47;;;13.90;;
8466;SDS011;4270;48.148;11.648;2023-09-12T02:46:29;15.43;;;13.63;;
8466;SDS011;4270;48.148;11.648;2023-09-12T02:48:55;13.00;;;11.63;;
8466;SDS011;4270;48.148;11.648;2023-09-12T02:51:20;16.33;;;13.80;;
8466;SDS011;4270;48.148;11.648;2023-09-12T02:53:45;15.63;;;13.43;;
8466;SDS011;4270;48.148;11.648;2023-09-12T02:56:10;14.50;;;12.30;;
8466;SDS011;4270;48.148;11.648;2023-09-12T02:58:36;16.50;;;13.10;;
8466;SDS011;4270;48.148;11.648;2023-09-12T03:01:01;15.53;;;13.93;;
8466;SDS011;4270;48.148;11.648;2023-09-12T03:03:28;15.30;;;13.30;;
8466;SDS011;4270;48.148;11.648;2023-09-12T03:06:00;16.47;;;13.47;;
8466;SDS011;4270;48.148;11.648;2023-09-12T03:08:26;15.53;;;13.50;;
8466;SDS011;4270;48.148;11.648;2023-09-12T03:10:55;15.00;;;13.07;;
8466;SDS011;4270;48.148;11.648;2023-09-12T03:13:20;15.43;;;13.83;;
8466;SDS011;4270;48.148;11.648;2023-09-12T03:15:45;15.77;;;13.93;;
8466;SDS011;4270;48.148;11.648;2023-09-12T03:18:11;17.53;;;13.83;;
8466;SDS011;4270;48.148;11.648;2023-09-12T03:20:37;17.23;;;13.23;;
8466;SDS011;4270;48.148;11.648;2023-09-12T03:23:03;15.63;;;14.00;;
8466;SDS011;4270;48.148;11.648;2023-09-12T03:25:28;17.33;;;13.40;;
8466;SDS011;4270;48.148;11.648;2023-09-12T03:27:53;15.03;;;12.60;;
8466;SDS011;4270;48.148;11.648;2023-09-12T03:30:19;15.53;;;13.80;;
8466;SDS011;4270;48.148;11.648;2023-09-12T03:32:44;15.90;;;14.07;;
8466;SDS011;4270;48.148;11.648;2023-09-12T03:35:10;16.40;;;12.70;;
8466;SDS011;4270;48.148;11.648;2023-09-12T03:37:35;15.80;;;14.10;;
8466;SDS011;4270;48.148;11.648;2023-09-12T03:40:05;17.33;;;13.50;;
8466;SDS011;4270;48.148;11.648;2023-09-12T03:42:30;17.60;;;13.77;;
8466;SDS011;4270;48.148;11.648;2023-09-12T03:44:55;15.63;;;14.00;;
8466;SDS011;4270;48.148;11.648;2023-09-12T03:47:21;15.63;;;14.13;;
8466;SDS011;4270;48.148;11.648;2023-09-12T03:49:46;15.17;;;13.57;;
8466;SDS011;4270;48.148;11.648;2023-09-12T03:52:11;14.90;;;12.43;;
8466;SDS011;4270;48.148;11.648;2023-09-12T03:54:36;14.40;;;13.00;;
8466;SDS011;4270;48.148;11.648;2023-09-12T03:57:02;16.87;;;12.93;;
8466;SDS011;4270;48.148;11.648;2023-09-12T03:59:27;15.40;;;13.33;;
8466;SDS011;4270;48.148;11.648;2023-09-12T04:01:52;16.00;;;14.33;;
8466;SDS011;4270;48.148;11.648;2023-09-12T04:04:17;14.83;;;13.07;;
8466;SDS011;4270;48.148;11.648;2023-09-12T04:06:43;16.20;;;13.63;;
8466;SDS011;4270;48.148;11.648;2023-09-12T04:09:08;14.40;;;12.60;;
8466;SDS011;4270;48.148;11.648;2023-09-12T04:11:33;17.80;;;13.73;;
8466;SDS011;4270;48.148;11.648;2023-09-12T04:13:58;17.00;;;13.40;;
8466;SDS011;4270;48.148;11.648;2023-09-12T04:16:23;16.13;;;14.40;;
8466;SDS011;4270;48.148;11.648;2023-09-12T04:18:49;18.50;;;13.63;;
8466;SDS011;4270;48.148;11.648;2023-09-12T04:21:14;15.07;;;13.40;;
8466;SDS011;4270;48.148;11.648;2023-09-12T04:23:40;16.00;;;13.70;;
8466;SDS011;4270;48.148;11.648;2023-09-12T04:26:05;15.80;;;14.07;;
8466;SDS011;4270;48.148;11.648;2023-09-12T04:28:30;18.37;;;14.30;;
8466;SDS011;4270;48.148;11.648;2023-09-12T04:31:04;15.73;;;13.50;;
8466;SDS011;4270;48.148;11.648;2023-09-12T04:33:30;15.93;;;13.57;;
8466;SDS011;4270;48.148;11.648;2023-09-12T04:35:57;16.20;;;13.30;;
8466;SDS011;4270;48.148;11.648;2023-09-12T04:38:22;17.43;;;12.83;;
8466;SDS011;4270;48.148;11.648;2023-09-12T04:41:01;15.97;;;12.60;;
8466;SDS011;4270;48.148;11.648;2023-09-12T04:43:31;16.80;;;13.57;;
8466;SDS011;4270;48.148;11.648;2023-09-12T04:45:57;15.27;;;13.50;;
8466;SDS011;4270;48.148;11.648;2023-09-12T04:48:22;15.57;;;12.37;;
8466;SDS011;4270;48.148;11.648;2023-09-12T04:50:48;16.93;;;13.80;;
8466;SDS011;4270;48.148;11.648;2023-09-12T04:53:13;15.47;;;13.57;;
8466;SDS011;4270;48.148;11.648;2023-09-12T04:55:38;16.20;;;13.27;;
8466;SDS011;4270;48.148;11.648;2023-09-12T04:58:04;15.80;;;12.73;;
8466;SDS011;4270;48.148;11.648;2023-09-12T05:00:29;16.87;;;13.97;;
8466;SDS011;4270;48.148;11.648;2023-09-12T05:02:54;17.13;;;13.70;;
8466;SDS011;4270;48.148;11.648;2023-09-12T05:05:20;17.10;;;13.27;;
8466;SDS011;4270;48.148;11.648;2023-09-12T05:07:45;14.80;;;13.20;;
8466;SDS011;4270;48.148;11.648;2023-09-12T05:10:10;14.60;;;12.53;;
8466;SDS011;4270;48.148;11.648;2023-09-12T05:12:35;17.47;;;13.00;;
8466;SDS011;4270;48.148;11.648;2023-09-12T05:15:01;17.50;;;13.53;;
8466;SDS011;4270;48.148;11.648;2023-09-12T05:17:26;15.07;;;13.47;;
8466;SDS011;4270;48.148;11.648;2023-09-12T05:19:52;14.77;;;13.17;;
8466;SDS011;4270;48.148;11.648;2023-09-12T05:22:18;17.43;;;13.07;;
8466;SDS011;4270;48.148;11.648;2023-09-12T05:24:43;15.83;;;12.87;;
8466;SDS011;4270;48.148;11.648;2023-09-12T05:27:08;14.47;;;12.97;;
8466;SDS011;4270;48.148;11.648;2023-09-12T05:29:34;17.80;;;14.17;;
8466;SDS011;4270;48.148;11.648;2023-09-12T05:31:59;15.47;;;13.70;;
8466;SDS011;4270;48.148;11.648;2023-09-12T05:34:24;14.97;;;13.30;;
8466;SDS011;4270;48.148;11.648;2023-09-12T05:36:49;15.83;;;13.37;;
8466;SDS011;4270;48.148;11.648;2023-09-12T05:39:14;14.70;;;13.07;;
8466;SDS011;4270;48.148;11.648;2023-09-12T05:41:40;16.80;;;14.43;;
8466;SDS011;4270;48.148;11.648;2023-09-12T05:44:05;16.47;;;13.90;;
8466;SDS011;4270;48.148;11.648;2023-09-12T05:46:30;14.77;;;13.27;;
8466;SDS011;4270;48.148;11.648;2023-09-12T05:48:55;16.40;;;13.87;;
8466;SDS011;4270;48.148;11.648;2023-09-12T05:51:21;13.70;;;12.30;;
8466;SDS011;4270;48.148;11.648;2023-09-12T05:53:46;16.17;;;13.80;;
8466;SDS011;4270;48.148;11.648;2023-09-12T05:56:11;16.40;;;13.30;;
8466;SDS011;4270;48.148;11.648;2023-09-12T05:58:36;14.83;;;13.23;;
8466;SDS011;4270;48.148;11.648;2023-09-12T06:01:06;13.70;;;12.30;;
8466;SDS011;4270;48.148;11.648;2023-09-12T06:03:31;14.53;;;13.13;;
8466;SDS011;4270;48.148;11.648;2023-09-12T06:05:57;15.43;;;13.10;;
8466;SDS011;4270;48.148;11.648;2023-09-12T06:08:22;14.30;;;12.80;;
8466;SDS011;4270;48.148;11.648;2023-09-12T06:10:47;15.43;;;13.90;;
8466;SDS011;4270;48.148;11.648;2023-09-12T06:13:13;19.30;;;13.90;;
8466;SDS011;4270;48.148;11.648;2023-09-12T06:15:39;17.63;;;12.83;;
8466;SDS011;4270;48.148;11.648;2023-09-12T06:18:06;15.10;;;13.33;;
8466;SDS011;4270;48.148;11.648;2023-09-12T06:20:31;14.60;;;12.17;;
8466;SDS011;4270;48.148;11.648;2023-09-12T06:22:56;14.17;;;12.40;;
8466;SDS011;4270;48.148;11.648;2023-09-12T06:25:21;15.83;;;12.20;;
8466;SDS011;4270;48.148;11.648;2023-09-12T06:27:46;13.77;;;12.37;;
8466;SDS011;4270;48.148;11.648;2023-09-12T06:30:12;17.33;;;12.93;;
8466;SDS011;4270;48.148;11.648;2023-09-12T06:32:37;17.10;;;13.70;;
8466;SDS011;4270;48.148;11.648;2023-09-12T06:35:03;16.03;;;12.93;;
8466;SDS011;4270;48.148;11.648;2023-09-12T06:37:28;15.33;;;12.20;;
8466;SDS011;4270;48.148;11.648;2023-09-12T06:39:54;13.30;;;11.90;;
8466;SDS011;4270;48.148;11.648;2023-09-12T06:42:19;13.37;;;12.00;;
8466;SDS011;4270;48.148;11.648;2023-09-12T06:44:44;14.13;;;12.50;;
8466;SDS011;4270;48.148;11.648;2023-09-12T06:47:09;18.10;;;12.53;;
8466;SDS011;4270;48.148;11.648;2023-09-12T06:49:35;17.80;;;12.07;;
8466;SDS011;4270;48.148;11.648;2023-09-12T06:52:02;14.50;;;12.70;;
8466;SDS011;4270;48.148;11.648;2023-09-12T06:54:27;14.30;;;12.30;;
8466;SDS011;4270;48.148;11.648;2023-09-12T06:56:53;17.07;;;12.73;;
8466;SDS011;4270;48.148;11.648;2023-09-12T06:59:18;13.50;;;11.97;;
8466;SDS011;4270;48.148;11.648;2023-09-12T07:01:43;14.17;;;12.00;;
8466;SDS011;4270;48.148;11.648;2023-09-12T07:04:10;14.03;;;11.80;;
8466;SDS011;4270;48.148;11.648;2023-09-12T07:06:35;14.90;;;11.20;;
8466;SDS011;4270;48.148;11.648;2023-09-12T07:09:00;13.43;;;11.53;;
8466;SDS011;4270;48.148;11.648;2023-09-12T07:11:26;19.77;;;12.57;;
8466;SDS011;4270;48.148;11.648;2023-09-12T07:13:51;15.53;;;12.30;;
8466;SDS011;4270;48.148;11.648;2023-09-12T07:16:16;14.87;;;11.67;;
8466;SDS011;4270;48.148;11.648;2023-09-12T07:18:41;14.57;;;11.33;;
8466;SDS011;4270;48.148;11.648;2023-09-12T07:21:07;14.20;;;11.20;;
8466;SDS011;4270;48.148;11.648;2023-09-12T07:23:32;13.33;;;11.40;;
8466;SDS011;4270;48.148;11.648;2023-09-12T07:25:57;20.37;;;12.60;;
8466;SDS011;4270;48.148;11.648;2023-09-12T07:28:26;13.17;;;11.10;;
8466;SDS011;4270;48.148;11.648;2023-09-12T07:30:51;13.83;;;11.07;;
8466;SDS011;4270;48.148;11.648;2023-09-12T07:33:16;15.30;;;11.50;;
8466;SDS011;4270;48.148;11.648;2023-09-12T07:35:42;16.53;;;11.27;;
8466;SDS011;4270;48.148;11.648;2023-09-12T07:38:07;16.37;;;10.53;;
8466;SDS011;4270;48.148;11.648;2023-09-12T07:40:32;16.00;;;11.10;;
8466;SDS011;4270;48.148;11.648;2023-09-12T07:42:57;13.27;;;11.73;;
8466;SDS011;4270;48.148;11.648;2023-09-12T07:45:23;11.97;;;10.53;;
8466;SDS011;4270;48.148;11.648;2023-09-12T07:47:48;12.40;;;10.93;;
8466;SDS011;4270;48.148;11.648;2023-09-12T07:50:14;12.50;;;10.30;;
8466;SDS011;4270;48.148;11.648;2023-09-12T07:52:39;12.20;;;9.93;;
8466;SDS011;4270;48.148;11.648;2023-09-12T07:55:04;12.57;;;11.37;;
8466;SDS011;4270;48.148;11.648;2023-09-12T07:57:30;11.50;;;10.30;;
8466;SDS011;4270;48.148;11.648;2023-09-12T07:59:56;11.73;;;10.53;;
8466;SDS011;4270;48.148;11.648;2023-09-12T08:02:21;14.20;;;10.10;;
8466;SDS011;4270;48.148;11.648;2023-09-12T08:04:47;11.70;;;10.50;;
8466;SDS011;4270;48.148;11.648;2023-09-12T08:07:13;13.50;;;9.97;;
8466;SDS011;4270;48.148;11.648;2023-09-12T08:09:52;15.50;;;10.57;;
8466;SDS011;4270;48.148;11.648;2023-09-12T08:12:18;12.83;;;9.90;;
8466;SDS011;4270;48.148;11.648;2023-09-12T08:14:44;10.90;;;9.60;;
8466;SDS011;4270;48.148;11.648;2023-09-12T08:17:10;11.67;;;10.57;;
8466;SDS011;4270;48.148;11.648;2023-09-12T08:19:35;10.93;;;9.87;;
8466;SDS011;4270;48.148;11.648;2023-09-12T08:22:00;12.80;;;9.80;;
8466;SDS011;4270;48.148;11.648;2023-09-12T08:24:26;11.20;;;10.17;;
8466;SDS011;4270;48.148;11.648;2023-09-12T08:26:51;11.20;;;10.07;;
8466;SDS011;4270;48.148;11.648;2023-09-12T08:29:16;10.70;;;9.60;;
8466;SDS011;4270;48.148;11.648;2023-09-12T08:31:41;11.27;;;10.17;;
8466;SDS011;4270;48.148;11.648;2023-09-12T08:34:06;11.27;;;10.17;;
8466;SDS011;4270;48.148;11.648;2023-09-12T08:36:32;10.87;;;9.90;;
8466;SDS011;4270;48.148;11.648;2023-09-12T08:38:57;11.13;;;10.03;;
8466;SDS011;4270;48.148;11.648;2023-09-12T08:41:25;10.47;;;9.47;;
8466;SDS011;4270;48.148;11.648;2023-09-12T08:43:51;10.90;;;9.90;;
8466;SDS011;4270;48.148;11.648;2023-09-12T08:46:16;12.87;;;10.23;;
8466;SDS011;4270;48.148;11.648;2023-09-12T08:48:42;10.57;;;9.60;;
8466;SDS011;4270;48.148;11.648;2023-09-12T08:51:07;11.07;;;10.03;;
8466;SDS011;4270;48.148;11.648;2023-09-12T08:53:34;10.53;;;9.57;;
8466;SDS011;4270;48.148;11.648;2023-09-12T08:56:02;9.80;;;9.00;;
8466;SDS011;4270;48.148;11.648;2023-09-12T08:58:32;11.50;;;9.67;;
8466;SDS011;4270;48.148;11.648;2023-09-12T09:00:58;10.90;;;9.90;;
8466;SDS011;4270;48.148;11.648;2023-09-12T09:03:24;10.90;;;8.90;;
8466;SDS011;4270;48.148;11.648;2023-09-12T09:05:51;9.90;;;8.97;;
8466;SDS011;4270;48.148;11.648;2023-09-12T09:08:17;10.60;;;9.60;;
8466;SDS011;4270;48.148;11.648;2023-09-12T09:10:56;11.13;;;9.97;;
8466;SDS011;4270;48.148;11.648;2023-09-12T09:13:21;10.13;;;9.13;;
8466;SDS011;4270;48.148;11.648;2023-09-12T09:15:47;10.20;;;9.20;;
8466;SDS011;4270;48.148;11.648;2023-09-12T09:18:12;11.10;;;10.00;;
8466;SDS011;4270;48.148;11.648;2023-09-12T09:20:37;12.23;;;9.30;;
8466;SDS011;4270;48.148;11.648;2023-09-12T09:23:04;10.80;;;9.77;;
8466;SDS011;4270;48.148;11.648;2023-09-12T09:25:36;11.03;;;9.20;;
8466;SDS011;4270;48.148;11.648;2023-09-12T09:28:04;9.53;;;8.67;;
8466;SDS011;4270;48.148;11.648;2023-09-12T09:30:49;9.67;;;8.80;;
8466;SDS011;4270;48.148;11.648;2023-09-12T09:33:16;11.07;;;9.70;;
8466;SDS011;4270;48.148;11.648;2023-09-12T09:35:41;10.33;;;9.43;;
8466;SDS011;4270;48.148;11.648;2023-09-12T09:38:07;9.40;;;8.70;;
8466;SDS011;4270;48.148;11.648;2023-09-12T09:40:33;11.30;;;9.90;;
8466;SDS011;4270;48.148;11.648;2023-09-12T09:42:59;10.80;;;9.90;;
8466;SDS011;4270;48.148;11.648;2023-09-12T09:45:24;11.07;;;9.97;;
8466;SDS011;4270;48.148;11.648;2023-09-12T09:47:49;9.70;;;8.80;;
8466;SDS011;4270;48.148;11.648;2023-09-12T09:50:15;10.20;;;9.37;;
8466;SDS011;4270;48.148;11.648;2023-09-12T09:52:42;13.60;;;10.23;;
8466;SDS011;4270;48.148;11.648;2023-09-12T09:55:07;10.30;;;9.40;;
8466;SDS011;4270;48.148;11.648;2023-09-12T09:57:39;10.30;;;9.33;;
8466;SDS011;4270;48.148;11.648;2023-09-12T10:00:04;13.20;;;10.07;;
8466;SDS011;4270;48.148;11.648;2023-09-12T10:02:36;11.60;;;10.50;;
8466;SDS011;4270;48.148;11.648;2023-09-12T10:05:03;10.10;;;9.20;;
8466;SDS011;4270;48.148;11.648;2023-09-12T10:07:30;9.93;;;9.03;;
8466;SDS011;4270;48.148;11.648;2023-09-12T10:09:57;10.03;;;9.13;;
8466;SDS011;4270;48.148;11.648;2023-09-12T10:12:23;10.63;;;9.60;;
8466;SDS011;4270;48.148;11.648;2023-09-12T10:14:49;10.10;;;9.30;;
8466;SDS011;4270;48.148;11.648;2023-09-12T10:17:14;9.27;;;8.47;;
8466;SDS011;4270;48.148;11.648;2023-09-12T10:19:43;9.73;;;8.87;;
8466;SDS011;4270;48.148;11.648;2023-09-12T10:24:40;9.90;;;8.80;;
8466;SDS011;4270;48.148;11.648;2023-09-12T10:27:06;9.37;;;8.47;;
8466;SDS011;4270;48.148;11.648;2023-09-12T10:29:31;10.57;;;9.57;;
8466;SDS011;4270;48.148;11.648;2023-09-12T10:32:00;8.90;;;8.20;;
8466;SDS011;4270;48.148;11.648;2023-09-12T10:34:26;9.80;;;8.90;;
8466;SDS011;4270;48.148;11.648;2023-09-12T10:36:52;9.03;;;8.10;;
8466;SDS011;4270;48.148;11.648;2023-09-12T10:39:19;9.60;;;8.30;;
8466;SDS011;4270;48.148;11.648;2023-09-12T10:41:44;8.40;;;7.70;;
8466;SDS011;4270;48.148;11.648;2023-09-12T10:44:11;9.97;;;8.97;;
8466;SDS011;4270;48.148;11.648;2023-09-12T10:46:39;11.00;;;8.10;;
8466;SDS011;4270;48.148;11.648;2023-09-12T10:49:08;8.77;;;8.07;;
8466;SDS011;4270;48.148;11.648;2023-09-12T10:51:40;9.20;;;8.30;;
8466;SDS011;4270;48.148;11.648;2023-09-12T10:54:06;9.37;;;7.73;;
8466;SDS011;4270;48.148;11.648;2023-09-12T10:56:33;9.37;;;8.47;;
8466;SDS011;4270;48.148;11.648;2023-09-12T11:01:29;8.53;;;7.70;;
8466;SDS011;4270;48.148;11.648;2023-09-12T11:03:54;8.90;;;8.20;;
8466;SDS011;4270;48.148;11.648;2023-09-12T11:06:20;8.27;;;7.47;;
8466;SDS011;4270;48.148;11.648;2023-09-12T11:09:11;8.93;;;8.17;;
8466;SDS011;4270;48.148;11.648;2023-09-12T11:11:32;8.97;;;8.27;;
8466;SDS011;4270;48.148;11.648;2023-09-12T11:14:04;8.80;;;8.00;;
8466;SDS011;4270;48.148;11.648;2023-09-12T11:16:30;9.37;;;8.43;;
8466;SDS011;4270;48.148;11.648;2023-09-12T11:21:40;9.23;;;8.43;;
8466;SDS011;4270;48.148;11.648;2023-09-12T11:24:06;9.10;;;8.30;;
8466;SDS011;4270;48.148;11.648;2023-09-12T11:26:31;10.17;;;7.43;;
8466;SDS011;4270;48.148;11.648;2023-09-12T11:28:57;8.57;;;7.87;;
8466;SDS011;4270;48.148;11.648;2023-09-12T11:31:28;8.00;;;7.20;;
8466;SDS011;4270;48.148;11.648;2023-09-12T11:33:53;9.10;;;8.30;;
8466;SDS011;4270;48.148;11.648;2023-09-12T11:36:19;9.37;;;8.47;;
8466;SDS011;4270;48.148;11.648;2023-09-12T11:38:46;9.77;;;8.77;;
8466;SDS011;4270;48.148;11.648;2023-09-12T11:41:14;9.07;;;8.27;;
8466;SDS011;4270;48.148;11.648;2023-09-12T11:43:39;9.20;;;8.30;;
8466;SDS011;4270;48.148;11.648;2023-09-12T11:46:05;8.80;;;8.10;;
8466;SDS011;4270;48.148;11.648;2023-09-12T11:48:31;9.00;;;8.10;;
8466;SDS011;4270;48.148;11.648;2023-09-12T11:50:56;9.27;;;8.37;;
8466;SDS011;4270;48.148;11.648;2023-09-12T11:53:25;10.00;;;9.10;;
8466;SDS011;4270;48.148;11.648;2023-09-12T11:55:56;10.00;;;9.10;;
8466;SDS011;4270;48.148;11.648;2023-09-12T11:58:21;9.07;;;8.30;;
8466;SDS011;4270;48.148;11.648;2023-09-12T12:00:48;10.50;;;9.50;;
8466;SDS011;4270;48.148;11.648;2023-09-12T12:03:14;11.43;;;8.50;;
8466;SDS011;4270;48.148;11.648;2023-09-12T12:05:40;9.13;;;8.33;;
8466;SDS011;4270;48.148;11.648;2023-09-12T12:08:06;9.27;;;8.43;;
8466;SDS011;4270;48.148;11.648;2023-09-12T12:10:32;7.53;;;6.87;;
8466;SDS011;4270;48.148;11.648;2023-09-12T12:12:57;8.17;;;7.47;;
8466;SDS011;4270;48.148;11.648;2023-09-12T12:15:22;8.77;;;7.97;;
8466;SDS011;4270;48.148;11.648;2023-09-12T12:17:47;11.23;;;8.03;;
8466;SDS011;4270;48.148;11.648;2023-09-12T12:20:13;9.40;;;8.37;;
8466;SDS011;4270;48.148;11.648;2023-09-12T12:22:38;8.93;;;8.13;;
8466;SDS011;4270;48.148;11.648;2023-09-12T12:25:10;8.17;;;7.47;;
8466;SDS011;4270;48.148;11.648;2023-09-12T12:27:39;8.97;;;8.27;;
8466;SDS011;4270;48.148;11.648;2023-09-12T12:30:05;8.77;;;7.97;;
8466;SDS011;4270;48.148;11.648;2023-09-12T12:32:31;9.33;;;8.50;;
8466;SDS011;4270;48.148;11.648;2023-09-12T12:34:56;9.00;;;8.20;;
8466;SDS011;4270;48.148;11.648;2023-09-12T12:37:27;8.53;;;7.73;;
8466;SDS011;4270;48.148;11.648;2023-09-12T12:39:55;8.00;;;7.20;;
8466;SDS011;4270;48.148;11.648;2023-09-12T12:42:20;10.63;;;7.93;;
8466;SDS011;4270;48.148;11.648;2023-09-12T12:44:51;9.40;;;8.57;;
8466;SDS011;4270;48.148;11.648;2023-09-12T12:47:17;9.40;;;8.10;;
8466;SDS011;4270;48.148;11.648;2023-09-12T12:49:42;9.33;;;7.97;;
8466;SDS011;4270;48.148;11.648;2023-09-12T12:52:11;8.30;;;7.60;;
8466;SDS011;4270;48.148;11.648;2023-09-12T12:54:36;14.13;;;8.00;;
8466;SDS011;4270;48.148;11.648;2023-09-12T12:57:02;8.63;;;7.83;;
8466;SDS011;4270;48.148;11.648;2023-09-12T12:59:27;8.50;;;7.57;;
8466;SDS011;4270;48.148;11.648;2023-09-12T13:01:54;8.73;;;7.73;;
8466;SDS011;4270;48.148;11.648;2023-09-12T13:04:20;10.40;;;8.70;;
8466;SDS011;4270;48.148;11.648;2023-09-12T13:06:45;9.43;;;8.50;;
8466;SDS011;4270;48.148;11.648;2023-09-12T13:09:11;9.00;;;8.10;;
8466;SDS011;4270;48.148;11.648;2023-09-12T13:11:36;8.70;;;7.97;;
8466;SDS011;4270;48.148;11.648;2023-09-12T13:14:03;9.53;;;8.67;;
8466;SDS011;4270;48.148;11.648;2023-09-12T13:16:34;9.70;;;8.83;;
8466;SDS011;4270;48.148;11.648;2023-09-12T13:18:59;9.00;;;8.13;;
8466;SDS011;4270;48.148;11.648;2023-09-12T13:21:24;9.50;;;8.60;;
8466;SDS011;4270;48.148;11.648;2023-09-12T13:23:49;8.90;;;8.20;;
8466;SDS011;4270;48.148;11.648;2023-09-12T13:26:15;8.83;;;8.03;;
8466;SDS011;4270;48.148;11.648;2023-09-12T13:28:40;8.43;;;7.63;;
8466;SDS011;4270;48.148;11.648;2023-09-12T13:31:06;10.47;;;8.10;;
8466;SDS011;4270;48.148;11.648;2023-09-12T13:33:31;10.10;;;8.40;;
8466;SDS011;4270;48.148;11.648;2023-09-12T13:35:57;8.70;;;7.77;;
8466;SDS011;4270;48.148;11.648;2023-09-12T13:38:22;10.33;;;8.20;;
8466;SDS011;4270;48.148;11.648;2023-09-12T13:40:48;10.70;;;7.80;;
8466;SDS011;4270;48.148;11.648;2023-09-12T13:43:13;9.30;;;8.40;;
8466;SDS011;4270;48.148;11.648;2023-09-12T13:45:39;8.07;;;7.37;;
8466;SDS011;4270;48.148;11.648;2023-09-12T13:48:05;7.67;;;7.00;;
8466;SDS011;4270;48.148;11.648;2023-09-12T13:50:31;9.53;;;7.50;;
8466;SDS011;4270;48.148;11.648;2023-09-12T13:53:03;9.30;;;8.43;;
8466;SDS011;4270;48.148;11.648;2023-09-12T13:55:31;9.70;;;8.80;;
8466;SDS011;4270;48.148;11.648;2023-09-12T13:57:57;9.27;;;8.07;;
8466;SDS011;4270;48.148;11.648;2023-09-12T14:00:22;10.53;;;7.93;;
8466;SDS011;4270;48.148;11.648;2023-09-12T14:02:47;9.80;;;8.83;;
8466;SDS011;4270;48.148;11.648;2023-09-12T14:05:12;10.00;;;9.07;;
8466;SDS011;4270;48.148;11.648;2023-09-12T14:07:38;10.30;;;9.30;;
8466;SDS011;4270;48.148;11.648;2023-09-12T14:10:05;11.80;;;8.87;;
8466;SDS011;4270;48.148;11.648;2023-09-12T14:12:30;9.60;;;8.70;;
8466;SDS011;4270;48.148;11.648;2023-09-12T14:14:56;8.97;;;8.17;;
8466;SDS011;4270;48.148;11.648;2023-09-12T14:17:21;9.63;;;8.63;;
8466;SDS011;4270;48.148;11.648;2023-09-12T14:19:46;9.93;;;8.90;;
8466;SDS011;4270;48.148;11.648;2023-09-12T14:22:11;9.13;;;8.20;;
8466;SDS011;4270;48.148;11.648;2023-09-12T14:24:37;10.70;;;8.93;;
8466;SDS011;4270;48.148;11.648;2023-09-12T14:27:02;9.27;;;8.33;;
8466;SDS011;4270;48.148;11.648;2023-09-12T14:29:27;10.30;;;8.43;;
8466;SDS011;4270;48.148;11.648;2023-09-12T14:31:55;9.70;;;8.70;;
8466;SDS011;4270;48.148;11.648;2023-09-12T14:34:28;10.77;;;8.33;;
8466;SDS011;4270;48.148;11.648;2023-09-12T14:36:56;9.57;;;8.67;;
8466;SDS011;4270;48.148;11.648;2023-09-12T14:39:21;8.87;;;7.90;;
8466;SDS011;4270;48.148;11.648;2023-09-12T14:41:47;11.80;;;9.23;;
8466;SDS011;4270;48.148;11.648;2023-09-12T14:44:17;10.20;;;9.20;;
8466;SDS011;4270;48.148;11.648;2023-09-12T14:46:45;10.47;;;9.47;;
8466;SDS011;4270;48.148;11.648;2023-09-12T14:49:11;11.17;;;9.03;;